Time;durP1;ratioP1;P1;durP2;ratioP2;P2;SDS_P1;SDS_P2;PMS_P1;PMS_P2;Temp;Humidity;BMP_temperature;BMP_pressure;BME280_temperature;BME280_humidity;BME280_pressure;Samples;Min_cycle;Max_cycle;Signal;HPM_P1;HPM_P2
2023/06/12 09:43:35;;;;;;;4.25;2.65;;;31.30;75.00;;;;;;3236216;23;20247;-67
2023/06/12 09:46:04;;;;;;;3.63;2.28;;;31.50;75.00;;;;;;4955979;29;20216;-67
2023/06/12 09:48:35;;;;;;;3.45;2.22;;;31.60;74.50;;;;;;4956729;29;20214;-67
2023/06/12 09:51:05;;;;;;;3.42;2.60;;;31.60;74.10;;;;;;4956319;29;20250;-67
2023/06/12 09:53:36;;;;;;;5.03;2.70;;;31.40;75.60;;;;;;4956496;29;20239;-68
2023/06/12 09:56:07;;;;;;;3.92;2.50;;;31.60;74.50;;;;;;4956829;29;20299;-68
2023/06/12 09:58:37;;;;;;;5.38;2.50;;;31.80;73.60;;;;;;4956692;29;20216;-69
2023/06/12 10:01:06;;;;;;;2.55;2.33;;;31.80;72.90;;;;;;4947675;29;20237;-69
2023/06/12 10:03:37;;;;;;;3.60;2.22;;;31.30;74.10;;;;;;4956273;29;20208;-69
2023/06/12 10:06:06;;;;;;;3.40;2.40;;;31.60;73.80;;;;;;4946989;29;20774;-68
2023/06/12 10:08:34;;;;;;;4.35;2.50;;;31.70;73.10;;;;;;4937219;29;20255;-68
2023/06/12 10:11:01;;;;;;;3.17;2.50;;;31.50;73.40;;;;;;4954906;29;20718;-68
2023/06/12 10:13:29;;;;;;;2.97;2.67;;;30.90;73.90;;;;;;4938810;29;20300;-69
2023/06/12 10:15:58;;;;;;;6.50;2.42;;;30.60;75.50;;;;;;4937445;29;20219;-68
2023/06/12 10:18:25;;;;;;;5.13;2.28;;;30.50;75.20;;;;;;4947496;29;20200;-69
2023/06/12 10:20:54;;;;;;;4.18;2.88;;;30.20;75.60;;;;;;4956117;29;20228;-68
2023/06/12 10:23:22;;;;;;;3.95;2.40;;;29.90;73.70;;;;;;4956252;29;20208;-68
2023/06/12 10:25:50;;;;;;;2.70;2.17;;;29.70;74.00;;;;;;4956324;29;20239;-68
2023/06/12 10:28:18;;;;;;;5.68;2.10;;;29.60;73.60;;;;;;4955629;29;20667;-67
2023/06/12 10:31:12;;;;;;;2.45;2.08;;;29.70;73.20;;;;;;4955277;28;20224;-68
2023/06/12 10:33:39;;;;;;;3.97;2.20;;;29.80;74.80;;;;;;4938462;29;20649;-68
2023/06/12 10:36:13;;;;;;;4.65;2.33;;;29.90;73.90;;;;;;4937500;29;20276;-67
2023/06/12 10:38:48;;;;;;;4.88;2.17;;;29.60;73.40;;;;;;4938016;29;20296;-69
2023/06/12 10:41:31;;;;;;;4.43;2.28;;;29.60;73.90;;;;;;4936826;29;20230;-68
2023/06/12 10:43:58;;;;;;;3.38;2.25;;;29.70;73.30;;;;;;4937014;29;20225;-68
2023/06/12 10:46:43;;;;;;;4.07;2.30;;;29.70;73.10;;;;;;4936633;29;20667;-68
2023/06/12 10:49:13;;;;;;;4.13;2.72;;;29.60;74.50;;;;;;4939633;29;20204;-68
2023/06/12 10:51:48;;;;;;;3.67;2.40;;;29.40;74.00;;;;;;4954150;29;20822;-68
2023/06/12 10:54:16;;;;;;;3.28;2.50;;;29.40;73.90;;;;;;4941507;29;20204;-69
2023/06/12 10:56:57;;;;;;;2.72;2.17;;;29.70;77.00;;;;;;4941005;28;20208;-69
2023/06/12 10:59:31;;;;;;;4.30;2.30;;;29.50;75.00;;;;;;4939927;28;20208;-71
2023/06/12 11:02:00;;;;;;;2.95;2.30;;;29.60;73.10;;;;;;4954183;28;20227;-67
2023/06/12 11:04:27;;;;;;;4.25;3.83;;;29.80;72.70;;;;;;4936281;29;20279;-68
2023/06/12 11:06:54;;;;;;;4.00;2.38;;;30.00;73.00;;;;;;4951820;29;20212;-71
2023/06/12 11:09:21;;;;;;;2.97;1.98;;;29.90;68.30;;;;;;4938980;28;20247;-68
2023/06/12 11:11:51;;;;;;;3.05;2.38;;;29.90;69.00;;;;;;4953261;28;20238;-68
2023/06/12 11:14:18;;;;;;;2.92;2.08;;;30.10;72.20;;;;;;4953646;29;20212;-68
2023/06/12 11:16:46;;;;;;;3.30;2.40;;;30.20;73.00;;;;;;4952910;29;20219;-69
2023/06/12 11:19:14;;;;;;;4.30;2.58;;;30.20;71.60;;;;;;4937417;29;20208;-68
2023/06/12 11:21:44;;;;;;;2.53;2.22;;;29.90;72.20;;;;;;4953835;28;20228;-69
2023/06/12 11:24:11;;;;;;;3.00;2.45;;;29.80;71.50;;;;;;4934368;29;20698;-68
2023/06/12 11:26:38;;;;;;;3.20;2.63;;;30.10;72.40;;;;;;4947568;28;20218;-70
2023/06/12 11:29:25;;;;;;;6.25;2.58;;;30.20;71.80;;;;;;4953465;29;20306;-70
2023/06/12 11:32:00;;;;;;;2.80;2.38;;;30.20;72.30;;;;;;4953706;29;20227;-68
2023/06/12 11:34:34;;;;;;;5.75;2.17;;;30.20;73.70;;;;;;4953660;29;20238;-68
2023/06/12 11:37:13;;;;;;;2.78;2.10;;;29.80;74.30;;;;;;4951658;29;20214;-70
2023/06/12 11:39:40;;;;;;;4.05;2.17;;;29.80;68.30;;;;;;4941397;29;20208;-70
2023/06/12 11:42:08;;;;;;;3.35;2.13;;;29.60;66.00;;;;;;4953285;28;20714;-71
2023/06/12 11:44:35;;;;;;;2.70;2.20;;;29.80;68.80;;;;;;4952747;29;20242;-69
2023/06/12 11:47:02;;;;;;;2.15;1.70;;;29.80;66.90;;;;;;4951968;29;20212;-70
2023/06/12 11:49:31;;;;;;;3.33;1.95;;;29.80;67.40;;;;;;4939857;28;20204;-72
2023/06/12 11:52:00;;;;;;;3.33;2.50;;;29.80;66.90;;;;;;4952780;28;20224;-71
2023/06/12 11:54:27;;;;;;;3.10;2.17;;;29.70;67.50;;;;;;4949109;28;20212;-71
2023/06/12 11:56:53;;;;;;;3.72;1.98;;;29.60;68.30;;;;;;4953077;29;20670;-71
2023/06/12 11:59:25;;;;;;;4.28;2.35;;;29.70;69.30;;;;;;4938475;29;20212;-72
2023/06/12 12:01:52;;;;;;;3.38;2.13;;;29.90;68.40;;;;;;4952819;29;20239;-73
2023/06/12 12:04:19;;;;;;;3.35;2.10;;;30.00;68.80;;;;;;4934760;29;20208;-76
2023/06/12 12:06:50;;;;;;;3.28;2.17;;;30.20;69.30;;;;;;4948641;28;20297;-73
2023/06/12 12:09:23;;;;;;;2.97;2.17;;;30.20;69.70;;;;;;4951905;29;20218;-72
2023/06/12 12:11:50;;;;;;;2.70;2.03;;;30.10;66.00;;;;;;4952748;29;20234;-76
2023/06/12 12:14:17;;;;;;;2.28;2.05;;;30.10;69.10;;;;;;4953226;29;20214;-73
2023/06/12 12:16:45;;;;;;;5.95;2.40;;;30.10;66.70;;;;;;4952598;29;20302;-72
2023/06/12 12:19:20;;;;;;;3.05;1.90;;;30.20;67.30;;;;;;4939017;29;20204;-75
2023/06/12 12:21:48;;;;;;;2.42;1.90;;;30.30;62.50;;;;;;4952613;28;20729;-75
2023/06/12 12:24:15;;;;;;;2.78;1.98;;;30.20;63.10;;;;;;4952227;29;20212;-72
2023/06/12 12:26:50;;;;;;;3.38;2.10;;;30.00;63.90;;;;;;4953006;29;20314;-72
2023/06/12 12:29:17;;;;;;;4.55;2.00;;;30.10;64.70;;;;;;4940053;29;20204;-72
2023/06/12 12:31:45;;;;;;;3.60;1.90;;;30.20;62.80;;;;;;4948001;29;20231;-74
2023/06/12 12:34:12;;;;;;;2.40;2.13;;;30.20;64.20;;;;;;4936929;29;20295;-74
2023/06/12 12:36:39;;;;;;;3.67;2.00;;;30.20;64.50;;;;;;4946968;28;20299;-74
2023/06/12 12:39:06;;;;;;;2.10;1.90;;;30.30;64.60;;;;;;4952174;28;20204;-72
2023/06/12 12:41:33;;;;;;;2.53;2.15;;;30.40;63.80;;;;;;4940660;28;20237;-76
2023/06/12 12:44:01;;;;;;;2.78;1.73;;;30.20;64.80;;;;;;4947575;29;20216;-75
2023/06/12 12:46:28;;;;;;;4.10;1.98;;;30.40;66.40;;;;;;4951624;29;20671;-72
2023/06/12 12:48:55;;;;;;;5.25;2.20;;;30.40;63.50;;;;;;4940413;28;20878;-75
2023/06/12 12:51:22;;;;;;;2.70;1.83;;;30.10;65.20;;;;;;4952626;28;20228;-74
2023/06/12 12:53:49;;;;;;;2.97;2.17;;;30.10;65.20;;;;;;4950607;28;20208;-72
2023/06/12 12:56:16;;;;;;;2.38;1.83;;;30.00;64.90;;;;;;4947058;28;20223;-73
2023/06/12 12:58:43;;;;;;;2.70;2.00;;;30.10;64.60;;;;;;4956270;28;20230;-74
2023/06/12 13:01:11;;;;;;;2.80;2.00;;;30.20;64.70;;;;;;4955494;28;20236;-75
2023/06/12 13:03:39;;;;;;;2.53;1.80;;;30.30;62.60;;;;;;4956245;29;20223;-73
2023/06/12 13:06:07;;;;;;;2.42;2.00;;;30.30;61.60;;;;;;4956004;29;20247;-72
2023/06/12 13:08:36;;;;;;;2.63;1.75;;;30.30;62.30;;;;;;4947307;29;20303;-73
2023/06/12 13:11:03;;;;;;;3.95;1.85;;;30.30;60.40;;;;;;4955226;29;20291;-74
2023/06/12 13:13:32;;;;;;;3.58;2.05;;;30.20;62.00;;;;;;4952405;28;20659;-75
2023/06/12 13:15:59;;;;;;;4.18;1.70;;;30.30;60.00;;;;;;4956334;29;20215;-75
2023/06/12 13:18:27;;;;;;;1.80;1.70;;;30.30;62.10;;;;;;4956446;28;20204;-68
2023/06/12 13:20:54;;;;;;;3.95;1.90;;;30.30;61.40;;;;;;4956552;28;20234;-68
2023/06/12 13:23:21;;;;;;;2.75;1.80;;;30.50;56.90;;;;;;4955714;28;20216;-69
2023/06/12 13:25:48;;;;;;;3.88;1.60;;;30.40;54.10;;;;;;4956066;29;20635;-69
2023/06/12 13:28:16;;;;;;;2.05;1.65;;;30.30;56.40;;;;;;4957018;29;20295;-68
2023/06/12 13:30:42;;;;;;;2.53;1.70;;;30.20;54.70;;;;;;4956438;29;20549;-67
2023/06/12 13:33:10;;;;;;;3.63;1.98;;;30.20;56.20;;;;;;4952171;29;20197;-71
2023/06/12 13:35:38;;;;;;;4.63;1.85;;;30.30;58.60;;;;;;4956698;29;20208;-69
2023/06/12 13:38:06;;;;;;;1.92;1.70;;;30.60;57.20;;;;;;4952150;29;20338;-67
2023/06/12 13:40:33;;;;;;;1.60;1.40;;;30.90;57.40;;;;;;4950108;28;20227;-68
2023/06/12 13:43:00;;;;;;;4.10;1.73;;;30.80;55.00;;;;;;4952563;29;20693;-67
2023/06/12 13:45:26;;;;;;;2.45;1.73;;;30.50;55.90;;;;;;4939846;28;20227;-69
2023/06/12 13:47:54;;;;;;;2.30;1.73;;;30.40;58.00;;;;;;4955711;28;20216;-69
2023/06/12 13:50:20;;;;;;;3.15;1.90;;;30.40;60.20;;;;;;4954456;28;20224;-67
2023/06/12 13:52:49;;;;;;;2.63;1.85;;;30.40;59.40;;;;;;4953786;28;20214;-68
2023/06/12 13:55:15;;;;;;;2.10;1.75;;;30.20;59.20;;;;;;4940545;29;20303;-67
2023/06/12 13:57:43;;;;;;;2.65;1.88;;;30.30;58.60;;;;;;4935811;29;20215;-68
2023/06/12 14:00:11;;;;;;;2.72;1.75;;;30.30;60.60;;;;;;4945957;28;20211;-67
2023/06/12 14:02:38;;;;;;;2.63;2.05;;;30.30;61.80;;;;;;4954729;28;20208;-67
2023/06/12 14:05:06;;;;;;;2.15;1.70;;;30.40;63.40;;;;;;4955275;29;20239;-67
2023/06/12 14:07:33;;;;;;;3.10;2.10;;;30.50;59.80;;;;;;4953982;28;20211;-66
2023/06/12 14:10:02;;;;;;;2.80;1.85;;;30.70;60.90;;;;;;4954972;29;20208;-66
2023/06/12 14:12:33;;;;;;;3.03;1.92;;;30.40;60.80;;;;;;4955283;29;20216;-67
2023/06/12 14:14:59;;;;;;;2.13;1.88;;;30.40;60.00;;;;;;4937504;29;20573;-68
2023/06/12 14:17:26;;;;;;;3.13;2.10;;;30.60;58.40;;;;;;4954991;28;20690;-66
2023/06/12 14:19:54;;;;;;;4.43;2.42;;;30.50;59.80;;;;;;4955012;29;20212;-69
2023/06/12 14:22:20;;;;;;;3.33;1.90;;;30.30;59.80;;;;;;4954980;28;20730;-67
2023/06/12 14:24:47;;;;;;;6.13;2.10;;;30.20;60.30;;;;;;4954747;28;20243;-66
2023/06/12 14:27:15;;;;;;;2.40;2.13;;;30.20;61.60;;;;;;4954238;29;20236;-65
2023/06/12 14:29:42;;;;;;;3.30;2.00;;;30.30;61.10;;;;;;4945996;29;20699;-66
2023/06/12 14:32:10;;;;;;;2.70;2.00;;;30.50;61.40;;;;;;4934046;29;20704;-68
2023/06/12 14:34:37;;;;;;;2.67;2.13;;;30.50;63.80;;;;;;4948369;29;20208;-67
2023/06/12 14:37:04;;;;;;;2.92;2.10;;;30.40;61.80;;;;;;4954095;28;20215;-66
2023/06/12 14:39:31;;;;;;;3.25;2.00;;;30.50;60.70;;;;;;4948115;29;20210;-67
2023/06/12 14:41:58;;;;;;;1.90;1.60;;;30.30;60.70;;;;;;4954604;29;20235;-67
2023/06/12 14:44:26;;;;;;;2.70;1.80;;;30.30;58.80;;;;;;4954408;29;20230;-67
2023/06/12 14:46:53;;;;;;;5.75;1.92;;;30.20;58.80;;;;;;4954069;28;20231;-69
2023/06/12 14:49:20;;;;;;;3.08;2.00;;;30.30;57.30;;;;;;4954285;28;20208;-68
2023/06/12 14:51:47;;;;;;;2.42;1.95;;;30.20;58.80;;;;;;4954365;28;20315;-67
2023/06/12 14:54:14;;;;;;;2.60;1.92;;;30.20;61.10;;;;;;4953993;28;20303;-69
2023/06/12 14:56:41;;;;;;;2.60;1.90;;;30.30;57.50;;;;;;4954076;28;20235;-68
2023/06/12 14:59:07;;;;;;;2.20;1.85;;;30.30;57.70;;;;;;4954258;28;20236;-67
2023/06/12 15:01:36;;;;;;;2.10;1.80;;;30.40;59.70;;;;;;4953340;28;20327;-67
2023/06/12 15:04:02;;;;;;;2.47;2.03;;;30.50;63.00;;;;;;4954275;28;20223;-70
2023/06/12 15:06:29;;;;;;;2.90;2.10;;;30.60;60.20;;;;;;4954021;28;20240;-67
2023/06/12 15:08:56;;;;;;;3.13;2.05;;;30.70;59.20;;;;;;4953529;28;20299;-66
2023/06/12 15:11:23;;;;;;;4.32;2.08;;;30.60;60.50;;;;;;4953820;28;20323;-67
2023/06/12 15:13:50;;;;;;;3.72;2.50;;;30.70;60.20;;;;;;4953894;28;20235;-66
2023/06/12 15:16:16;;;;;;;3.25;2.30;;;30.70;61.80;;;;;;4952499;28;20208;-67
2023/06/12 15:18:45;;;;;;;3.63;2.55;;;30.80;61.60;;;;;;4953688;28;20315;-70
2023/06/12 15:21:13;;;;;;;3.15;2.25;;;30.80;63.20;;;;;;4954149;29;20282;-66
2023/06/12 15:23:40;;;;;;;3.33;2.25;;;30.60;64.30;;;;;;4953219;28;20258;-68
2023/06/12 15:26:07;;;;;;;2.95;2.40;;;30.70;65.60;;;;;;4953316;28;20235;-67
2023/06/12 15:28:33;;;;;;;3.67;2.40;;;30.80;69.10;;;;;;4953455;28;20208;-67
2023/06/12 15:31:00;;;;;;;2.50;2.13;;;30.80;65.10;;;;;;4933920;29;20579;-67
2023/06/12 15:33:27;;;;;;;2.58;2.28;;;30.90;65.10;;;;;;4934387;29;20215;-67
2023/06/12 15:35:55;;;;;;;4.50;2.25;;;30.80;64.40;;;;;;4941866;28;20577;-66
2023/06/12 15:38:36;;;;;;;3.75;2.30;;;30.80;64.90;;;;;;4953293;28;20666;-69
2023/06/12 15:41:04;;;;;;;2.63;2.15;;;30.70;65.50;;;;;;4954423;28;20228;-67
2023/06/12 15:43:31;;;;;;;3.15;2.70;;;30.60;64.50;;;;;;4953216;28;20238;-68
2023/06/12 15:45:58;;;;;;;4.80;2.20;;;30.60;64.50;;;;;;4950287;29;20235;-66
2023/06/12 15:48:25;;;;;;;2.50;1.92;;;30.60;66.60;;;;;;4953524;29;20742;-67
2023/06/12 15:50:53;;;;;;;2.40;2.20;;;30.60;65.20;;;;;;4953168;29;20228;-66
2023/06/12 15:53:21;;;;;;;3.88;2.67;;;30.60;66.10;;;;;;4948409;29;20212;-66
2023/06/12 15:55:48;;;;;;;3.05;2.42;;;30.50;64.60;;;;;;4953080;28;20205;-72
2023/06/12 15:58:15;;;;;;;4.13;2.58;;;30.50;66.30;;;;;;4953665;29;20212;-68
2023/06/12 16:00:42;;;;;;;3.33;2.63;;;30.50;66.50;;;;;;4952966;29;20228;-70
2023/06/12 16:03:10;;;;;;;2.30;2.05;;;30.30;67.00;;;;;;4947027;28;20353;-69
2023/06/12 16:05:36;;;;;;;3.35;2.45;;;30.40;68.40;;;;;;4953182;28;20204;-67
2023/06/12 16:08:03;;;;;;;3.72;2.42;;;30.50;66.50;;;;;;4952830;29;20215;-71
2023/06/12 16:10:32;;;;;;;2.92;2.25;;;30.70;67.50;;;;;;4948818;29;20234;-68
2023/06/12 16:12:59;;;;;;;3.35;2.60;;;30.70;71.70;;;;;;4954179;29;20246;-67
2023/06/12 16:15:26;;;;;;;2.65;2.45;;;30.80;67.80;;;;;;4954465;29;20287;-66
2023/06/12 16:17:53;;;;;;;3.05;2.50;;;30.80;67.50;;;;;;4954363;29;20242;-66
2023/06/12 16:20:20;;;;;;;4.40;2.80;;;30.90;67.50;;;;;;4954556;29;20315;-65
2023/06/12 16:22:47;;;;;;;3.22;2.30;;;31.00;68.40;;;;;;4954668;29;20208;-66
2023/06/12 16:25:14;;;;;;;3.72;2.53;;;31.10;68.60;;;;;;4954308;29;20211;-68
2023/06/12 16:27:45;;;;;;;3.47;2.53;;;31.10;67.80;;;;;;4954897;29;20256;-66
2023/06/12 16:30:13;;;;;;;3.70;2.85;;;31.20;67.10;;;;;;4956204;28;20216;-66
2023/06/12 16:32:40;;;;;;;2.45;2.22;;;31.10;68.10;;;;;;4958154;29;20536;-66
2023/06/12 16:35:07;;;;;;;3.63;3.03;;;31.10;68.40;;;;;;4958255;29;20204;-66
2023/06/12 16:37:34;;;;;;;3.45;2.42;;;30.80;69.70;;;;;;4957892;29;20214;-67
2023/06/12 16:40:05;;;;;;;2.92;2.42;;;30.80;69.90;;;;;;4957643;29;20314;-67
2023/06/12 16:42:32;;;;;;;3.72;2.35;;;30.70;71.10;;;;;;4958088;29;20208;-66
2023/06/12 16:45:01;;;;;;;3.22;2.40;;;30.60;70.60;;;;;;4957567;29;20582;-65
2023/06/12 16:47:28;;;;;;;3.78;2.80;;;30.60;69.80;;;;;;4957721;29;20258;-66
2023/06/12 16:49:55;;;;;;;2.92;2.22;;;30.50;71.10;;;;;;4957385;29;20214;-66
2023/06/12 16:52:22;;;;;;;3.58;2.70;;;30.50;69.30;;;;;;4957580;29;20216;-66
2023/06/12 16:54:49;;;;;;;3.15;2.50;;;30.30;70.00;;;;;;4957546;29;20295;-65
2023/06/12 16:57:16;;;;;;;3.35;2.70;;;30.10;69.20;;;;;;4958015;29;20243;-67
2023/06/12 16:59:44;;;;;;;10.20;2.90;;;29.80;70.80;;;;;;4957407;29;20208;-67
2023/06/12 17:02:13;;;;;;;8.68;2.70;;;29.90;70.20;;;;;;4957420;29;20659;-67
2023/06/12 17:04:40;;;;;;;3.28;2.40;;;29.90;70.50;;;;;;4957686;29;20211;-65
2023/06/12 17:07:07;;;;;;;3.03;2.38;;;29.90;69.70;;;;;;4957452;29;20282;-66
2023/06/12 17:09:34;;;;;;;3.47;2.35;;;30.00;70.20;;;;;;4957809;29;20208;-65
2023/06/12 17:12:02;;;;;;;3.13;2.42;;;30.00;68.90;;;;;;4957593;29;20224;-67
2023/06/12 17:14:29;;;;;;;3.10;2.35;;;29.90;71.00;;;;;;4957788;29;20204;-67
2023/06/12 17:16:56;;;;;;;3.40;2.47;;;30.00;71.00;;;;;;4957566;29;20208;-66
2023/06/12 17:19:24;;;;;;;3.40;2.30;;;30.10;69.90;;;;;;4957345;29;20587;-65
2023/06/12 17:21:50;;;;;;;3.00;2.40;;;30.10;71.40;;;;;;4957576;29;20315;-66
2023/06/12 17:24:17;;;;;;;3.90;2.47;;;30.30;71.60;;;;;;4957510;29;20222;-66
2023/06/12 17:26:44;;;;;;;3.00;2.65;;;30.50;70.70;;;;;;4957203;29;20244;-66
2023/06/12 17:29:11;;;;;;;3.60;2.47;;;30.50;71.60;;;;;;4957554;29;20218;-67
2023/06/12 17:31:38;;;;;;;4.22;2.33;;;30.30;68.80;;;;;;4957155;29;20319;-66
2023/06/12 17:34:05;;;;;;;3.33;2.28;;;30.20;70.00;;;;;;4956987;29;20236;-66
2023/06/12 17:36:33;;;;;;;3.50;2.40;;;30.30;72.20;;;;;;4956901;29;20222;-65
2023/06/12 17:39:01;;;;;;;5.97;3.00;;;30.30;73.30;;;;;;4957515;29;20216;-66
2023/06/12 17:41:29;;;;;;;5.35;2.55;;;30.10;73.20;;;;;;4956024;28;20224;-64
2023/06/12 17:43:56;;;;;;;3.80;2.53;;;29.90;74.50;;;;;;4957062;29;20224;-66
2023/06/12 17:46:23;;;;;;;6.03;2.80;;;29.70;74.60;;;;;;4956698;29;20236;-65
2023/06/12 17:48:50;;;;;;;4.28;2.45;;;29.70;75.00;;;;;;4956779;29;20208;-65
2023/06/12 17:51:16;;;;;;;2.83;2.53;;;29.60;76.30;;;;;;4956875;29;20230;-67
2023/06/12 17:53:45;;;;;;;3.33;2.70;;;29.80;75.50;;;;;;4956983;29;20663;-70
2023/06/12 17:56:14;;;;;;;3.45;2.45;;;29.80;75.50;;;;;;4956986;29;20337;-69
2023/06/12 17:58:41;;;;;;;3.53;2.70;;;29.60;76.40;;;;;;4956682;29;20676;-67
2023/06/12 18:01:08;;;;;;;3.33;2.60;;;29.40;77.50;;;;;;4956434;29;20231;-70
2023/06/12 18:03:34;;;;;;;3.38;2.83;;;29.20;77.10;;;;;;4956980;29;20218;-68
2023/06/12 18:06:01;;;;;;;4.13;2.85;;;29.20;77.80;;;;;;4956978;29;20214;-69
2023/06/12 18:08:28;;;;;;;2.83;2.40;;;29.00;78.10;;;;;;4956704;29;20331;-69
2023/06/12 18:10:59;;;;;;;3.20;2.42;;;29.00;77.40;;;;;;4956302;29;20224;-69
2023/06/12 18:13:26;;;;;;;3.83;2.33;;;28.90;76.70;;;;;;4956947;29;20239;-73
2023/06/12 18:15:53;;;;;;;3.03;2.50;;;28.70;77.40;;;;;;4956463;29;20211;-68
2023/06/12 18:18:20;;;;;;;3.05;2.55;;;28.80;77.70;;;;;;4956516;29;20212;-70
2023/06/12 18:20:47;;;;;;;3.53;2.70;;;28.60;78.20;;;;;;4956505;29;20603;-70
2023/06/12 18:23:14;;;;;;;3.25;2.38;;;28.50;78.30;;;;;;4956763;29;20218;-70
2023/06/12 18:25:41;;;;;;;2.80;2.40;;;28.50;78.90;;;;;;4952374;29;20567;-69
2023/06/12 18:28:09;;;;;;;3.75;2.30;;;28.50;78.70;;;;;;4956170;29;20235;-66
2023/06/12 18:30:37;;;;;;;3.25;2.75;;;28.50;78.70;;;;;;4955900;29;20318;-70
2023/06/12 18:33:04;;;;;;;3.13;2.70;;;28.40;79.40;;;;;;4956246;29;20263;-70
2023/06/12 18:35:32;;;;;;;2.80;2.30;;;28.40;79.50;;;;;;4955892;28;20212;-70
2023/06/12 18:38:00;;;;;;;3.63;2.78;;;28.30;78.90;;;;;;4955529;29;20211;-70
2023/06/12 18:40:27;;;;;;;3.63;2.60;;;28.30;79.40;;;;;;4955763;29;20228;-72
2023/06/12 18:42:53;;;;;;;3.63;2.90;;;28.30;79.80;;;;;;4952742;29;20287;-69
2023/06/12 18:45:22;;;;;;;3.40;2.67;;;28.40;79.70;;;;;;4936634;29;20212;-70
2023/06/12 18:47:48;;;;;;;3.95;2.58;;;28.20;79.70;;;;;;4936721;29;20243;-69
2023/06/12 18:50:15;;;;;;;3.42;2.60;;;28.20;79.70;;;;;;4936729;29;20255;-68
2023/06/12 18:52:42;;;;;;;4.72;2.80;;;28.10;81.20;;;;;;4936439;29;20216;-68
2023/06/12 18:55:09;;;;;;;3.75;2.47;;;28.10;80.70;;;;;;4936894;29;20209;-64
2023/06/12 18:57:36;;;;;;;3.10;2.40;;;28.10;81.50;;;;;;4936852;29;20232;-66
2023/06/12 19:00:05;;;;;;;4.35;2.55;;;28.00;80.70;;;;;;4936755;29;20212;-65
2023/06/12 19:02:33;;;;;;;5.45;2.85;;;27.90;81.40;;;;;;4936843;29;20264;-65
2023/06/12 19:05:00;;;;;;;4.13;2.75;;;27.90;82.20;;;;;;4936682;29;20209;-65
2023/06/12 19:07:28;;;;;;;4.03;2.67;;;27.90;82.50;;;;;;4936570;29;20233;-69
2023/06/12 19:09:55;;;;;;;4.85;2.80;;;27.80;82.60;;;;;;4919785;29;20212;-68
2023/06/12 19:12:22;;;;;;;3.72;2.92;;;27.80;82.50;;;;;;4936503;29;20299;-65
2023/06/12 19:14:49;;;;;;;5.18;2.83;;;27.60;82.80;;;;;;4936575;29;20307;-66
2023/06/12 19:17:15;;;;;;;3.67;2.58;;;27.60;83.10;;;;;;4936494;29;20611;-66
2023/06/12 19:19:45;;;;;;;6.53;2.78;;;27.60;83.90;;;;;;4936408;29;20219;-65
2023/06/12 19:22:11;;;;;;;3.03;2.65;;;27.60;83.40;;;;;;4936526;29;20237;-65
2023/06/12 19:24:39;;;;;;;8.38;2.60;;;27.70;85.60;;;;;;4936032;29;20209;-65
2023/06/12 19:27:06;;;;;;;4.45;2.88;;;27.60;85.50;;;;;;4936238;29;20247;-67
2023/06/12 19:29:33;;;;;;;3.50;2.85;;;27.60;87.30;;;;;;4936312;29;20246;-66
2023/06/12 19:31:59;;;;;;;3.42;2.70;;;27.60;88.70;;;;;;4936165;29;20737;-65
2023/06/12 19:34:27;;;;;;;4.10;2.85;;;27.50;87.80;;;;;;4936033;29;20292;-67
2023/06/12 19:36:55;;;;;;;5.80;3.55;;;27.50;88.70;;;;;;4935927;29;20308;-65
2023/06/12 19:39:23;;;;;;;5.38;3.17;;;27.40;88.40;;;;;;4936318;29;20664;-67
2023/06/12 19:41:50;;;;;;;4.68;2.97;;;27.30;88.90;;;;;;4935902;29;20787;-65
2023/06/12 19:44:17;;;;;;;5.63;3.47;;;27.20;87.80;;;;;;4935342;29;20216;-66
2023/06/12 19:46:44;;;;;;;4.10;2.90;;;27.10;90.20;;;;;;4935147;29;20213;-65
2023/06/12 19:49:11;;;;;;;4.88;3.10;;;27.00;90.70;;;;;;4935343;29;20240;-66
2023/06/12 19:51:37;;;;;;;3.47;2.70;;;26.90;90.60;;;;;;4934881;29;20767;-66
2023/06/12 19:54:06;;;;;;;6.28;3.00;;;26.80;90.40;;;;;;4936180;29;20212;-65
2023/06/12 19:56:33;;;;;;;4.18;3.03;;;26.70;90.60;;;;;;4936045;29;20209;-64
2023/06/12 19:59:01;;;;;;;3.63;2.97;;;26.60;90.70;;;;;;4935817;29;20571;-65
2023/06/12 20:01:28;;;;;;;4.22;2.85;;;26.50;90.70;;;;;;4935750;29;20228;-68
2023/06/12 20:03:55;;;;;;;3.83;2.70;;;26.40;91.10;;;;;;4934940;29;20284;-68
2023/06/12 20:06:22;;;;;;;4.35;2.58;;;26.20;91.40;;;;;;4935720;29;20723;-71
2023/06/12 20:08:49;;;;;;;3.85;2.92;;;26.10;91.10;;;;;;4935754;29;20247;-65
2023/06/12 20:11:17;;;;;;;3.95;2.75;;;26.00;91.50;;;;;;4935921;29;20236;-69
2023/06/12 20:13:44;;;;;;;3.88;2.70;;;25.90;91.70;;;;;;4935920;29;20209;-66
2023/06/12 20:16:11;;;;;;;4.03;2.65;;;25.80;91.40;;;;;;4935537;29;20295;-65
2023/06/12 20:18:38;;;;;;;3.55;2.80;;;25.80;91.90;;;;;;4935510;29;20204;-65
2023/06/12 20:21:05;;;;;;;3.83;2.42;;;25.70;91.80;;;;;;4935245;29;20708;-65
2023/06/12 20:23:32;;;;;;;4.03;2.97;;;25.60;92.20;;;;;;4935561;29;20267;-65
2023/06/12 20:25:59;;;;;;;4.15;2.70;;;25.50;92.70;;;;;;4935445;29;20219;-68
2023/06/12 20:28:27;;;;;;;6.00;2.90;;;25.50;92.40;;;;;;4935494;29;20242;-65
2023/06/12 20:30:54;;;;;;;3.90;2.90;;;25.40;92.30;;;;;;4935599;29;20655;-66
2023/06/12 20:33:21;;;;;;;3.90;2.78;;;25.30;93.00;;;;;;4935523;29;20213;-65
2023/06/12 20:35:48;;;;;;;4.97;3.05;;;25.20;93.30;;;;;;4935516;29;20215;-65
2023/06/12 20:38:16;;;;;;;3.28;2.70;;;25.20;93.60;;;;;;4935409;29;20244;-65
2023/06/12 20:40:43;;;;;;;3.92;2.67;;;25.10;93.20;;;;;;4935442;29;20776;-66
2023/06/12 20:43:10;;;;;;;4.97;2.88;;;25.10;93.40;;;;;;4935141;29;20219;-66
2023/06/12 20:45:38;;;;;;;3.88;3.03;;;25.10;93.90;;;;;;4935186;29;20219;-65
2023/06/12 20:48:05;;;;;;;4.00;2.90;;;25.10;93.90;;;;;;4935230;29;20259;-66
2023/06/12 20:50:32;;;;;;;3.10;2.53;;;25.00;93.60;;;;;;4935588;29;20233;-66
2023/06/12 20:52:59;;;;;;;5.60;3.05;;;25.00;92.30;;;;;;4934937;29;20209;-66
2023/06/12 20:55:28;;;;;;;5.30;3.17;;;24.90;92.70;;;;;;4935272;29;20216;-66
2023/06/12 20:57:54;;;;;;;3.45;2.80;;;24.80;92.80;;;;;;4935254;29;20220;-66
2023/06/12 21:00:21;;;;;;;6.35;3.35;;;24.80;92.80;;;;;;4934985;29;20588;-65
2023/06/12 21:02:50;;;;;;;9.30;2.97;;;24.70;91.90;;;;;;4935175;29;20561;-70
2023/06/12 21:05:17;;;;;;;4.07;2.65;;;24.60;91.90;;;;;;4935154;29;20562;-72
